createdAt,value
2019-01-18T00:02:40.464Z,78.38
2019-01-18T00:05:44.147Z,79.14
2019-01-18T00:08:47.812Z,79.25
2019-01-18T00:11:51.384Z,78.59
2019-01-18T00:14:54.980Z,78.41
2019-01-18T00:17:58.834Z,78.37
2019-01-18T00:21:02.512Z,78.91
2019-01-18T00:24:06.278Z,78.10
2019-01-18T00:27:10.114Z,77.21
2019-01-18T00:30:14.871Z,77.01
2019-01-18T00:33:18.546Z,77.05
2019-01-18T00:36:22.210Z,77.07
2019-01-18T00:39:25.972Z,77.79
2019-01-18T00:42:30.632Z,76.45
2019-01-18T00:45:34.442Z,77.10
2019-01-18T00:48:37.948Z,76.48
2019-01-18T00:51:41.533Z,76.62
2019-01-18T00:54:45.146Z,75.87
2019-01-18T00:57:49.699Z,75.53
2019-01-18T01:00:53.437Z,76.06
2019-01-18T01:03:57.100Z,76.32
2019-01-18T01:07:00.656Z,76.07
2019-01-18T01:10:04.872Z,76.11
2019-01-18T01:13:08.819Z,76.27
2019-01-18T01:16:12.489Z,75.80
2019-01-18T01:19:18.001Z,75.58
2019-01-18T01:22:23.723Z,76.05
2019-01-18T01:25:27.551Z,76.09
2019-01-18T01:28:31.224Z,77.58
2019-01-18T01:31:34.992Z,78.06
2019-01-18T01:34:38.647Z,78.18
2019-01-18T01:37:42.281Z,77.40
2019-01-18T01:40:47.196Z,77.04
2019-01-18T01:43:50.739Z,75.56
2019-01-18T01:46:54.324Z,74.69
2019-01-18T01:49:58.014Z,73.52
2019-01-18T01:53:01.665Z,73.31
2019-01-18T01:56:05.273Z,72.27
2019-01-18T01:59:08.901Z,72.53
2019-01-18T02:02:12.467Z,74.24
2019-01-18T02:05:17.373Z,75.71
2019-01-18T02:08:21.008Z,77.10
2019-01-18T02:11:24.614Z,78.02
2019-01-18T02:14:28.272Z,78.81
2019-01-18T02:17:31.829Z,79.77
2019-01-18T02:20:38.539Z,80.55
2019-01-18T02:23:43.181Z,81.01
2019-01-18T02:26:46.842Z,81.18
2019-01-18T02:29:56.377Z,81.75
2019-01-18T02:32:54.086Z,81.47
2019-01-18T02:35:57.742Z,81.76
2019-01-18T02:39:01.450Z,82.10
2019-01-18T02:42:06.135Z,82.62
2019-01-18T02:45:10.968Z,82.69
2019-01-18T02:48:14.519Z,82.21
2019-01-18T02:51:18.425Z,83.58
2019-01-18T02:54:22.029Z,83.06
2019-01-18T02:57:33.000Z,82.82
2019-01-18T03:00:36.726Z,83.00
2019-01-18T03:03:40.345Z,83.27
2019-01-18T03:06:43.832Z,83.89
2019-01-18T03:09:47.385Z,82.23
2019-01-18T03:12:51.467Z,82.95
2019-01-18T03:15:55.078Z,82.75
2019-01-18T03:18:58.611Z,82.07
2019-01-18T03:22:02.275Z,82.16
2019-01-18T03:25:07.937Z,82.25
2019-01-18T03:28:11.552Z,81.65
2019-01-18T03:31:15.204Z,81.63
2019-01-18T03:34:19.015Z,81.16
2019-01-18T03:37:22.991Z,81.59
2019-01-18T03:40:26.517Z,81.36
2019-01-18T03:43:30.055Z,81.34
2019-01-18T03:46:33.773Z,81.36
2019-01-18T03:49:37.343Z,81.14
2019-01-18T03:52:40.940Z,81.08
2019-01-18T03:55:44.578Z,81.45
2019-01-18T03:58:48.229Z,82.14
2019-01-18T04:01:51.877Z,81.67
2019-01-18T04:04:56.331Z,81.64
2019-01-18T04:07:59.898Z,81.70
2019-01-18T04:11:03.713Z,81.58
2019-01-18T04:14:08.234Z,81.99
2019-01-18T04:17:12.104Z,82.34
2019-01-18T04:20:16.834Z,82.14
2019-01-18T04:23:20.410Z,81.66
2019-01-18T04:26:24.057Z,82.11
2019-01-18T04:29:27.650Z,81.49
2019-01-18T04:32:32.137Z,82.58
2019-01-18T04:35:35.890Z,82.71
2019-01-18T04:38:40.620Z,82.34
2019-01-18T04:41:44.409Z,82.54
2019-01-18T04:44:48.117Z,82.42
2019-01-18T04:47:51.788Z,82.90
2019-01-18T04:50:55.430Z,82.36
2019-01-18T04:53:59.536Z,82.19
2019-01-18T04:57:03.221Z,82.12
2019-01-18T05:00:09.934Z,82.85
2019-01-18T05:03:13.539Z,82.16
2019-01-18T05:06:17.241Z,82.19
2019-01-18T05:09:20.929Z,82.21
2019-01-18T05:12:24.525Z,82.35
2019-01-18T05:15:30.547Z,82.30
2019-01-18T05:18:34.128Z,82.09
2019-01-18T05:21:38.890Z,82.59
2019-01-18T05:24:49.287Z,82.58
2019-01-18T05:27:48.215Z,83.19
2019-01-18T05:30:53.151Z,83.03
2019-01-18T05:33:56.815Z,83.44
2019-01-18T05:37:00.384Z,83.63
2019-01-18T05:40:03.955Z,83.62
2019-01-18T05:43:07.733Z,83.85
2019-01-18T05:46:11.472Z,83.95
2019-01-18T05:49:15.023Z,83.67
2019-01-18T05:52:18.729Z,84.21
2019-01-18T05:55:22.475Z,83.73
2019-01-18T05:58:26.050Z,84.35
2019-01-18T06:01:29.941Z,84.59
2019-01-18T06:04:34.428Z,84.78
2019-01-18T06:07:38.090Z,84.43
2019-01-18T06:10:41.719Z,85.07
2019-01-18T06:13:45.274Z,84.92
2019-01-18T06:16:48.937Z,84.38
2019-01-18T06:19:52.347Z,84.04
2019-01-18T06:22:55.892Z,83.89
2019-01-18T06:25:59.591Z,84.86
2019-01-18T06:29:03.236Z,84.45
2019-01-18T06:32:07.309Z,84.48
2019-01-18T06:35:11.025Z,84.42
2019-01-18T06:38:14.654Z,85.14
2019-01-18T06:41:23.391Z,85.44
2019-01-18T06:44:26.958Z,85.01
2019-01-18T06:47:30.593Z,84.58
2019-01-18T06:50:34.496Z,85.19
2019-01-18T06:53:38.248Z,84.86
2019-01-18T06:56:41.857Z,85.67
2019-01-18T06:59:45.322Z,86.01
2019-01-18T07:02:51.051Z,85.13
2019-01-18T07:05:55.756Z,85.44
2019-01-18T07:08:59.449Z,85.86
2019-01-18T07:12:03.219Z,86.15
2019-01-18T07:15:08.743Z,86.74
2019-01-18T07:18:12.525Z,86.86
2019-01-18T07:21:16.167Z,86.44
2019-01-18T07:24:19.805Z,85.33
2019-01-18T07:27:24.432Z,85.49
2019-01-18T07:30:30.678Z,85.47
2019-01-18T07:33:34.715Z,85.25
2019-01-18T07:36:38.272Z,85.77
2019-01-18T07:39:42.021Z,85.04
2019-01-18T07:42:45.665Z,85.33
2019-01-18T07:45:53.927Z,84.51
2019-01-18T07:48:58.624Z,85.83
2019-01-18T07:52:04.403Z,85.06
2019-01-18T07:55:10.346Z,86.24
2019-01-18T07:58:14.115Z,86.86
2019-01-18T08:01:22.296Z,87.07
2019-01-18T08:04:27.410Z,87.75
2019-01-18T08:07:32.055Z,87.92
2019-01-18T08:10:35.955Z,87.25
2019-01-18T08:13:40.737Z,86.13
2019-01-18T08:16:46.546Z,85.74
2019-01-18T08:19:50.200Z,85.69
2019-01-18T08:22:54.888Z,84.79
2019-01-18T08:25:58.651Z,85.17
2019-01-18T08:29:06.760Z,85.48
2019-01-18T08:32:10.393Z,85.58
2019-01-18T08:35:15.485Z,85.64
2019-01-18T08:38:21.395Z,86.46
2019-01-18T08:41:31.251Z,85.46
2019-01-18T08:44:35.001Z,85.64
2019-01-18T08:47:38.598Z,85.81
2019-01-18T08:50:48.683Z,86.18
2019-01-18T08:53:52.295Z,85.57
2019-01-18T08:56:55.942Z,85.40
2019-01-18T08:59:59.854Z,85.22
2019-01-18T09:03:06.759Z,85.61
2019-01-18T09:06:23.081Z,86.43
2019-01-18T09:09:27.656Z,86.32
2019-01-18T09:12:42.639Z,86.00
2019-01-18T09:16:05.654Z,85.32
2019-01-18T09:19:15.440Z,85.58
2019-01-18T09:22:21.088Z,85.03
2019-01-18T09:25:26.077Z,84.81
2019-01-18T09:28:30.864Z,84.82
2019-01-18T09:31:34.536Z,84.38
2019-01-18T09:34:43.729Z,83.88
2019-01-18T09:37:47.480Z,83.52
2019-01-18T09:40:52.277Z,84.12
2019-01-18T09:43:55.954Z,83.46
2019-01-18T09:47:02.975Z,83.21
2019-01-18T09:50:09.969Z,82.19
2019-01-18T09:53:13.683Z,81.91
2019-01-18T09:56:17.315Z,81.54
2019-01-18T09:59:20.951Z,80.92
2019-01-18T10:02:24.458Z,81.00
2019-01-18T10:05:28.298Z,79.41
2019-01-18T10:08:34.231Z,78.97
2019-01-18T10:11:38.031Z,78.03
2019-01-18T10:14:41.903Z,78.12
2019-01-18T10:17:45.955Z,78.80
2019-01-18T10:20:49.522Z,77.66
2019-01-18T10:23:52.987Z,76.15
2019-01-18T10:26:56.682Z,75.67
2019-01-18T10:30:01.310Z,75.18
2019-01-18T10:33:05.434Z,74.88
2019-01-18T10:36:09.118Z,74.61
2019-01-18T10:39:12.679Z,74.17
2019-01-18T10:42:16.331Z,72.91
2019-01-18T10:45:20.013Z,74.47
2019-01-18T10:48:23.794Z,72.61
2019-01-18T10:51:27.101Z,71.49
2019-01-18T10:54:30.678Z,73.29
2019-01-18T10:57:36.047Z,73.55
2019-01-18T11:00:38.379Z,73.53
2019-01-18T11:03:42.036Z,73.40
2019-01-18T11:06:45.628Z,70.53
2019-01-18T11:09:50.272Z,69.65
2019-01-18T11:12:54.084Z,69.46
2019-01-18T11:15:57.703Z,69.13
2019-01-18T11:19:01.324Z,69.64
2019-01-18T11:22:05.033Z,68.84
2019-01-18T11:25:08.891Z,71.11
2019-01-18T11:28:12.603Z,71.01
2019-01-18T11:31:16.294Z,70.35
2019-01-18T11:34:19.839Z,69.59
2019-01-18T11:37:23.506Z,67.87
2019-01-18T11:40:27.221Z,68.21
2019-01-18T11:43:30.886Z,68.62
2019-01-18T11:46:34.440Z,67.11
2019-01-18T11:49:38.248Z,62.56
2019-01-18T11:52:41.925Z,64.25
2019-01-18T11:55:45.501Z,63.17
2019-01-18T11:58:49.104Z,68.01
2019-01-18T12:01:52.550Z,69.20
2019-01-18T12:04:56.223Z,71.12
2019-01-18T12:07:59.826Z,71.07
2019-01-18T12:11:03.477Z,70.80
2019-01-18T12:14:07.136Z,71.26
2019-01-18T12:17:10.595Z,70.56
2019-01-18T12:20:17.868Z,69.64
2019-01-18T12:23:21.449Z,68.86
2019-01-18T12:26:25.181Z,70.10
2019-01-18T12:29:28.770Z,70.09
2019-01-18T12:32:32.282Z,69.37
2019-01-18T12:35:35.710Z,68.84
2019-01-18T12:38:39.310Z,68.25
2019-01-18T12:41:42.989Z,68.51
2019-01-18T12:44:46.551Z,68.43
2019-01-18T12:47:50.164Z,69.27
2019-01-18T12:50:53.739Z,69.11
2019-01-18T12:53:57.275Z,68.08
2019-01-18T12:57:00.798Z,67.54
2019-01-18T13:00:06.254Z,68.11
2019-01-18T13:03:10.090Z,67.20
2019-01-18T13:06:13.694Z,67.58
2019-01-18T13:09:17.183Z,67.24
2019-01-18T13:12:20.692Z,67.09
2019-01-18T13:15:28.151Z,68.18
2019-01-18T13:18:32.671Z,69.05
2019-01-18T13:21:36.225Z,68.93
2019-01-18T13:24:39.806Z,69.41
2019-01-18T13:27:43.359Z,68.25
2019-01-18T13:30:47.035Z,67.08
2019-01-18T13:33:50.515Z,67.68
2019-01-18T13:36:53.969Z,67.28
2019-01-18T13:39:57.529Z,67.76
2019-01-18T13:43:01.066Z,65.78
2019-01-18T13:46:04.563Z,66.74
2019-01-18T13:49:08.223Z,66.56
2019-01-18T13:52:11.760Z,66.31
2019-01-18T13:55:17.798Z,65.49
2019-01-18T13:58:21.351Z,65.93
2019-01-18T14:01:24.811Z,65.63
2019-01-18T14:04:28.322Z,66.06
2019-01-18T14:07:31.824Z,66.45
2019-01-18T14:10:35.491Z,66.80
2019-01-18T14:13:39.005Z,65.80
2019-01-18T14:16:43.566Z,66.80
2019-01-18T14:19:47.056Z,66.93
2019-01-18T14:22:51.546Z,66.44
2019-01-18T14:25:55.033Z,65.03
2019-01-18T14:28:58.776Z,64.92
2019-01-18T14:32:02.385Z,64.73
2019-01-18T14:35:06.501Z,64.59
2019-01-18T14:38:10.108Z,64.38
2019-01-18T14:41:15.750Z,65.51
2019-01-18T14:44:17.259Z,65.30
2019-01-18T14:47:20.979Z,64.76
2019-01-18T14:50:24.663Z,65.63
2019-01-18T14:53:28.421Z,65.59
2019-01-18T14:56:32.272Z,64.70
2019-01-18T14:59:35.976Z,64.92
2019-01-18T15:02:39.540Z,64.30
2019-01-18T15:05:43.322Z,64.93
2019-01-18T15:08:46.864Z,64.29
2019-01-18T15:11:50.517Z,64.73
2019-01-18T15:14:54.148Z,66.86
2019-01-18T15:17:57.855Z,67.55
2019-01-18T15:21:01.434Z,68.41
2019-01-18T15:24:05.102Z,68.04
2019-01-18T15:27:08.891Z,67.25
2019-01-18T15:30:15.279Z,66.40
2019-01-18T15:33:22.689Z,67.26
2019-01-18T15:36:26.404Z,68.65
2019-01-18T15:39:29.958Z,68.74
2019-01-18T15:42:36.597Z,70.59
2019-01-18T15:45:40.230Z,72.34
2019-01-18T15:48:43.705Z,73.07
2019-01-18T15:51:47.417Z,73.06
2019-01-18T15:54:51.078Z,73.34
2019-01-18T15:57:54.759Z,74.76
2019-01-18T16:00:58.384Z,74.64
2019-01-18T16:04:02.095Z,74.66
2019-01-18T16:07:05.853Z,75.24
2019-01-18T16:10:10.227Z,75.37
2019-01-18T16:13:14.221Z,75.52
2019-01-18T16:16:24.399Z,75.84
2019-01-18T16:19:28.082Z,76.74
2019-01-18T16:22:31.811Z,77.63
2019-01-18T16:25:35.520Z,77.55
2019-01-18T16:28:39.125Z,78.13
2019-01-18T16:31:42.734Z,79.30
2019-01-18T16:34:46.495Z,80.48
2019-01-18T16:37:50.444Z,81.12
2019-01-18T16:40:54.266Z,81.90
2019-01-18T16:43:57.936Z,82.36
2019-01-18T16:47:01.686Z,82.55
2019-01-18T16:50:07.098Z,82.62
2019-01-18T16:53:23.642Z,82.84
2019-01-18T16:56:27.247Z,82.86
2019-01-18T16:59:30.943Z,82.41
2019-01-18T17:02:34.752Z,82.77
2019-01-18T17:05:38.155Z,83.53
2019-01-18T17:08:41.704Z,83.66
2019-01-18T17:11:45.362Z,83.63
2019-01-18T17:14:50.923Z,83.60
2019-01-18T17:17:54.698Z,83.43
2019-01-18T17:20:58.193Z,84.02
2019-01-18T17:24:01.901Z,81.49
2019-01-18T17:27:06.226Z,81.62
2019-01-18T17:30:13.820Z,81.19
2019-01-18T17:33:17.682Z,81.75
2019-01-18T17:36:34.977Z,81.78
2019-01-18T17:39:54.462Z,81.89
2019-01-18T17:43:08.134Z,81.00
2019-01-18T17:47:27.786Z,81.48
2019-01-18T17:52:51.102Z,81.32
2019-01-18T17:56:36.178Z,82.41
2019-01-18T17:59:49.681Z,82.60
2019-01-18T18:03:01.995Z,83.25
2019-01-18T18:06:19.355Z,83.44
2019-01-18T18:09:32.711Z,83.48
2019-01-18T18:12:49.338Z,83.67
2019-01-18T18:16:21.915Z,83.18
2019-01-18T18:21:41.749Z,82.11
2019-01-18T18:24:52.175Z,81.30
2019-01-18T18:28:16.721Z,80.61
2019-01-18T18:34:09.747Z,80.17
2019-01-18T18:37:42.407Z,81.01
2019-01-18T18:41:00.489Z,81.24
2019-01-18T18:44:18.015Z,81.17
2019-01-18T18:47:33.800Z,81.30
2019-01-18T18:51:05.570Z,81.38
2019-01-18T18:56:23.666Z,81.44
2019-01-18T18:59:50.218Z,81.74
2019-01-18T19:04:06.141Z,82.35
2019-01-18T19:07:30.709Z,82.09
2019-01-18T19:10:44.648Z,82.91
2019-01-18T19:15:33.144Z,82.90
2019-01-18T19:18:52.091Z,83.22
2019-01-18T19:22:10.841Z,83.21
2019-01-18T19:26:13.767Z,82.85
2019-01-18T19:29:59.823Z,82.97
2019-01-18T19:33:17.355Z,83.32
2019-01-18T19:36:33.967Z,83.23
2019-01-18T19:39:47.434Z,83.36
2019-01-18T19:43:23.031Z,83.39
2019-01-18T19:46:44.991Z,84.93
2019-01-18T19:50:03.085Z,85.12
2019-01-18T19:54:01.224Z,85.28
2019-01-18T19:57:26.899Z,84.87
2019-01-18T20:00:43.277Z,85.61
2019-01-18T20:03:59.329Z,85.75
2019-01-18T20:08:18.097Z,85.54
2019-01-18T20:11:49.665Z,85.42
2019-01-18T20:17:06.530Z,85.07
2019-01-18T20:20:34.110Z,84.99
2019-01-18T20:26:59.295Z,84.93
2019-01-18T20:30:13.097Z,85.22
2019-01-18T20:35:31.748Z,85.43
2019-01-18T20:38:58.063Z,86.16
2019-01-18T20:44:16.555Z,86.68
2019-01-18T20:47:34.964Z,86.44
2019-01-18T20:52:57.119Z,86.67
2019-01-18T20:57:19.450Z,85.75
2019-01-18T21:00:37.111Z,85.36
2019-01-18T21:06:03.091Z,84.86
2019-01-18T21:11:38.934Z,83.39
2019-01-18T21:15:01.880Z,81.70
2019-01-18T21:18:16.104Z,81.88
2019-01-18T21:21:36.435Z,81.43
2019-01-18T21:26:55.437Z,81.20
2019-01-18T21:30:50.409Z,80.73
2019-01-18T21:34:05.939Z,81.01
2019-01-18T21:39:29.319Z,80.93
2019-01-18T21:42:46.766Z,80.65
2019-01-18T21:46:33.796Z,80.60
2019-01-18T21:49:50.916Z,80.46
2019-01-18T21:53:06.073Z,80.79
2019-01-18T21:58:25.154Z,80.81
2019-01-18T22:01:34.026Z,81.03
2019-01-18T22:05:14.505Z,80.76
2019-01-18T22:08:26.785Z,81.34
2019-01-18T22:13:44.406Z,81.87
2019-01-18T22:16:59.628Z,81.79
2019-01-18T22:20:16.762Z,81.74
2019-01-18T22:23:39.229Z,82.23
2019-01-18T22:28:55.889Z,82.12
2019-01-18T22:32:13.795Z,82.26
2019-01-18T22:37:44.020Z,82.63
2019-01-18T22:41:22.261Z,82.35
2019-01-18T22:46:43.274Z,81.59
2019-01-18T22:49:56.921Z,82.64
2019-01-18T22:53:19.629Z,83.07
2019-01-18T22:56:36.252Z,82.75
2019-01-18T22:59:54.646Z,83.23
2019-01-18T23:03:12.137Z,83.34
2019-01-18T23:09:30.757Z,83.40
2019-01-18T23:15:06.455Z,82.91
2019-01-18T23:18:24.858Z,82.86
2019-01-18T23:21:41.221Z,82.33
2019-01-18T23:25:21.246Z,82.40
2019-01-18T23:28:36.279Z,82.06
2019-01-18T23:32:23.731Z,82.46
2019-01-18T23:36:38.778Z,81.89
2019-01-18T23:40:00.768Z,82.21
2019-01-18T23:43:31.800Z,81.79
2019-01-18T23:47:44.446Z,81.19
2019-01-18T23:51:07.921Z,82.27
2019-01-18T23:54:29.230Z,81.88
2019-01-18T23:57:44.146Z,82.60
